SCC: Birmingham practice one times

Pos Num Class Team Time Gap To 1st Speed --- --- ----- ------------------------------ ---------- ------- ------- ------- 1. 60 GS Finlay Motorsports 1:37.580 84.853 2. 92...

Pos Num Class Team                                 Time     Gap  To 1st   Speed
--- --- ----- ------------------------------ ---------- ------- ------- -------
 1.  60 GS    Finlay Motorsports               1:37.580                  84.853
 2.  92 GS    Anchor Racing                    1:37.680   0.100   0.100  84.767
 3.  05 GS    Multimatic Motorsports           1:37.790   0.110   0.210  84.671
 4.  13 GS    Unitech Racing                   1:37.803   0.013   0.223  84.660
 5.  69 GS    Krohn Racing/TRG                 1:38.042   0.239   0.462  84.454
 6.  10 GS    Champion Motorsports             1:38.100   0.058   0.520  84.404
 7.  96 GS    Turner Motorsport                1:38.262   0.162   0.682  84.265
 8.  55 GS    Multimatic Motorsports           1:38.425   0.163   0.845  84.125
 9.  81 GS    Synergy Racing                   1:38.508   0.083   0.928  84.054
10.   4 GS    Blackforest Motorsports          1:38.536   0.028   0.956  84.030
11.   5 GS    Blackforest Motorsports          1:38.764   0.228   1.184  83.836
12.  35 GS    Schuitemaker Motorsports         1:38.792   0.028   1.212  83.812
13.   7 GS    Power Racing Team                1:38.818   0.026   1.238  83.790
14.  16 GS    Zoom Motorsports                 1:38.847   0.029   1.267  83.766
15.  99 GS    Anchor Racing                    1:38.908   0.061   1.328  83.714
16.  07 GS    Powell Motorsport                1:38.942   0.034   1.362  83.685
17.  90 GS    Automatic Racing                 1:38.985   0.043   1.405  83.649
18.  40 GS    Team Sahlen                      1:39.010   0.025   1.430  83.628
19.  11 GS    Powell Motorsport                1:39.114   0.104   1.534  83.540
20.  09 GS    Automatic Racing                 1:39.350   0.236   1.770  83.342
21.  93 GS    Anchor Racing                    1:39.381   0.031   1.801  83.316
22.  38 GS    BGB Motorsports                  1:39.666   0.285   2.086  83.077
23.  88 GS    Knobel Racing                    1:39.739   0.073   2.159  83.017
24.   6 GS    Zoom Motorsports                 1:39.870   0.131   2.290  82.908
25.  17 GS    Doncaster Racing                 1:39.884   0.014   2.304  82.896
26.  89 GS    LNS Motorsports                  1:39.946   0.062   2.366  82.845
27.  63 GS    Team RPM                         1:40.159   0.213   2.579  82.669
28.  58 GS    Rehagen Racing                   1:40.226   0.067   2.646  82.613
29.  91 GS    Fiorano Racing                   1:40.342   0.116   2.762  82.518
30.  47 GS    TF Racing                        1:40.362   0.020   2.782  82.501
31.  21 GS    Bodymotion Racing                1:40.531   0.169   2.951  82.363
32.  44 GS    Team Sahlen                      1:40.751   0.220   3.171  82.183
33.  84 GS    DWW/GorillaRacing.com            1:41.267   0.516   3.687  81.764
34.  52 GS    Rehagen Racing                   1:41.674   0.407   4.094  81.437
35.  12 ST    TC Kline Racing                  1:42.257   0.583   4.677  80.972
36.  71 ST    TC Kline Racing                  1:42.276   0.019   4.696  80.957
37.  95 ST    Turner Motorsports               1:42.331   0.055   4.751  80.914
38.  27 ST    Bill Fenton Motorsports          1:42.364   0.033   4.784  80.888
39.  70 ST    SpeedSource                      1:42.378   0.014   4.798  80.877
40.  00 ST    Georgian Bay Motorsports         1:42.663   0.285   5.083  80.652
41.  29 ST    Bill Fenton Motorsports          1:42.864   0.201   5.284  80.495
42.  64 ST    Matt Connolly Motorsports        1:42.868   0.004   5.288  80.492
43.  43 GS    Team Sahlen                      1:42.913   0.045   5.333  80.456
44.  39 ST    Matt Connolly Motorsports        1:43.036   0.123   5.456  80.360
45.  45 GS    Autometrics Motorsports          1:43.144   0.108   5.564  80.276
46.  68 ST    SpeedSource                      1:43.336   0.192   5.756  80.127
47.  06 ST    Compass360/Racing                1:43.560   0.224   5.980  79.954
48.  98 ST    Stewart Motorsports              1:43.615   0.055   6.035  79.911
49.  97 ST    Turner Motorsports               1:43.768   0.153   6.188  79.793
50.  66 ST    SpeedSource                      1:43.870   0.102   6.290  79.715
51.  73 GS    RTG Motorsports                  1:44.480   0.610   6.900  79.250
52.  46 ST    Franklin American Mortgage       1:44.864   0.384   7.284  78.959
53.  36 ST    Compass360/Racing                1:44.991   0.127   7.411  78.864
54.  72 ST    Anchor Racing                    1:45.000   0.009   7.420  78.857
55.  94 ST    Radial Motorsports               1:45.101   0.101   7.521  78.781
56.  67 ST    SpeedSource                      1:45.253   0.152   7.673  78.668
57.  50 ST    Southpaw Racing                  1:47.582   2.329  10.002  76.965
58.  20 ST    Nuzzo Motorsports                1:47.662   0.080  10.082  76.907
59.  25 ST    HBAR Motorsports                 1:56.163   8.501  18.583  71.279
60.  28 GS    Race Prep Motorsports            8:49.269 6:53.10 7:11.68   3.555
61.  01 ST    Georgian Bay Motorsports          No Time
62.  32 ST    Franklin American                 No Time
63.  57 ST    Baglieracing                      No Time

Be part of something big

Write a comment
Show comments
About this article
Series Grand-Am
Drivers Matt Connolly , Bill Fenton
Teams Krohn Racing , Autometrics Motorsports , Rehagen Racing , Turner Motorsport , Team Sahlen , Multimatic Motorsports , Automatic Racing , Bodymotion Racing , SpeedSource